Time;durP1;ratioP1;P1;durP2;ratioP2;P2;SDS_P1;SDS_P2;PMS_P1;PMS_P2;Temp;Humidity;BMP_temperature;BMP_pressure;BME280_temperature;BME280_humidity;BME280_pressure;Samples;Min_cycle;Max_cycle;Signal;HPM_P1;HPM_P2
2022/03/20 00:01:16;;;;;;;14.63;12.38;;;;;;;9.41;55.59;102978.66;4974324;28;20054;-82
2022/03/20 00:03:44;;;;;;;13.80;11.63;;;;;;;10.02;55.12;103071.31;4975398;28;20081;-83
2022/03/20 00:06:12;;;;;;;13.10;11.80;;;;;;;8.96;55.23;102889.75;4975513;28;20126;-83
2022/03/20 00:08:39;;;;;;;14.75;12.38;;;;;;;9.35;55.52;102966.56;4969621;28;20043;-83
2022/03/20 00:11:06;;;;;;;14.32;11.68;;;;;;;8.92;56.06;102881.06;4956707;28;20059;-84
2022/03/20 00:13:34;;;;;;;16.80;11.27;;;;;;;8.42;55.85;102795.97;4954798;28;20086;-84
2022/03/20 00:16:01;;;;;;;14.73;11.43;;;;;;;9.89;55.82;103048.94;4955360;28;20466;-81
2022/03/20 00:18:29;;;;;;;15.18;11.75;;;;;;;8.31;56.38;102794.63;4955951;28;20051;-83
2022/03/20 00:21:00;;;;;;;15.00;11.45;;;;;;;8.97;56.52;102902.06;4954327;28;20293;-84
2022/03/20 00:23:28;;;;;;;12.95;11.57;;;;;;;8.78;56.21;102871.09;4954401;28;20059;-84
2022/03/20 00:25:56;;;;;;;14.50;12.02;;;;;;;9.96;56.27;103066.28;4958188;28;20054;-83
2022/03/20 00:28:25;;;;;;;16.67;11.35;;;;;;;9.18;56.29;102935.53;4967766;28;20062;-84
2022/03/20 00:30:53;;;;;;;13.40;11.50;;;;;;;9.95;56.20;103063.69;4968317;28;20142;-83
2022/03/20 00:33:20;;;;;;;13.07;11.70;;;;;;;9.07;56.59;102924.56;4969916;28;20035;-83
2022/03/20 00:35:48;;;;;;;12.85;11.55;;;;;;;9.17;55.94;102928.53;4969278;28;20058;-83
2022/03/20 00:38:15;;;;;;;13.95;11.75;;;;;;;9.26;56.14;102931.66;4968617;28;20141;-84
2022/03/20 00:40:43;;;;;;;14.05;11.68;;;;;;;9.16;56.22;102915.34;4967787;28;20178;-83
2022/03/20 00:43:10;;;;;;;13.13;11.18;;;;;;;9.22;56.29;102927.44;4967650;28;20054;-84
2022/03/20 00:45:37;;;;;;;14.27;12.05;;;;;;;9.33;56.14;102949.00;4968193;28;20508;-84
2022/03/20 00:48:04;;;;;;;12.25;11.05;;;;;;;9.40;56.00;102972.50;4968496;28;20208;-83
2022/03/20 00:50:31;;;;;;;19.63;12.45;;;;;;;9.31;56.30;102948.22;4967354;28;20141;-84
2022/03/20 00:52:58;;;;;;;14.35;11.80;;;;;;;9.61;56.19;103004.25;4967479;28;20125;-82
2022/03/20 00:55:25;;;;;;;13.10;11.70;;;;;;;9.66;56.30;103012.00;4967604;28;20086;-83
2022/03/20 00:57:51;;;;;;;15.60;11.10;;;;;;;9.30;55.35;102954.47;4967807;28;20461;-85
2022/03/20 01:00:18;;;;;;;12.82;11.52;;;;;;;8.82;55.33;102871.84;4959806;28;20549;-83
2022/03/20 01:02:45;;;;;;;19.27;12.27;;;;;;;9.75;55.33;103015.06;4948008;28;20092;-83
2022/03/20 01:05:13;;;;;;;12.00;10.80;;;;;;;9.83;54.85;103038.63;4948923;29;20048;-83
2022/03/20 01:07:43;;;;;;;12.35;10.10;;;;;;;9.86;54.45;103032.31;4948697;28;20453;-83
2022/03/20 01:10:11;;;;;;;14.85;10.93;;;;;;;9.64;54.59;103004.13;4948711;29;20580;-82
2022/03/20 01:12:39;;;;;;;13.48;11.48;;;;;;;9.85;54.29;103028.78;4950550;28;20495;-83
2022/03/20 01:15:08;;;;;;;12.63;10.30;;;;;;;9.96;54.35;103049.50;4948785;28;20059;-84
2022/03/20 01:17:35;;;;;;;13.38;11.30;;;;;;;9.81;54.77;103045.78;4952168;28;20047;-84
2022/03/20 01:20:04;;;;;;;13.90;10.50;;;;;;;9.84;54.69;103058.91;4952778;29;20126;-83
2022/03/20 01:22:30;;;;;;;12.43;11.18;;;;;;;9.50;54.09;102999.47;4951994;28;20560;-84
2022/03/20 01:24:57;;;;;;;15.30;10.68;;;;;;;9.84;54.28;103058.91;4950791;29;20055;-83
2022/03/20 01:27:24;;;;;;;12.52;10.48;;;;;;;9.81;54.39;103051.94;4948885;29;20145;-83
2022/03/20 01:29:50;;;;;;;16.05;11.00;;;;;;;9.74;54.95;103044.34;4949152;28;20342;-84
2022/03/20 01:32:17;;;;;;;15.00;11.10;;;;;;;9.46;54.25;102992.56;4951347;29;20442;-83
2022/03/20 01:34:44;;;;;;;12.27;10.98;;;;;;;9.44;54.09;102983.81;4952919;28;20446;-85
2022/03/20 01:37:11;;;;;;;13.82;11.93;;;;;;;9.76;53.83;103039.84;4951647;29;20061;-86
2022/03/20 01:39:37;;;;;;;12.27;11.02;;;;;;;9.44;53.76;102978.50;4953508;28;20062;-84
2022/03/20 01:42:05;;;;;;;13.38;11.00;;;;;;;9.18;53.93;102950.56;4954231;28;20114;-83
2022/03/20 01:44:35;;;;;;;12.68;11.25;;;;;;;9.37;54.04;102987.72;4953452;29;20133;-84
2022/03/20 01:47:03;;;;;;;14.77;11.35;;;;;;;9.03;54.37;102923.00;4953392;29;20106;-84
2022/03/20 01:49:30;;;;;;;16.65;12.00;;;;;;;9.67;54.93;103043.75;4951728;29;20490;-82
2022/03/20 01:52:13;;;;;;;13.40;11.75;;;;;;;9.05;55.30;102950.25;4951818;29;20234;-83
2022/03/20 01:54:44;;;;;;;13.75;12.38;;;;;;;7.95;54.83;102770.66;4952346;29;20295;-84
2022/03/20 01:57:23;;;;;;;14.27;11.75;;;;;;;9.47;54.92;103020.81;4950927;29;20081;-85
2022/03/20 01:59:51;;;;;;;15.27;11.85;;;;;;;9.48;55.17;103038.44;4950728;29;20078;-84
2022/03/20 02:02:19;;;;;;;13.98;12.30;;;;;;;9.50;54.66;103025.97;4950849;28;20055;-84
2022/03/20 02:04:46;;;;;;;14.05;12.57;;;;;;;9.43;55.04;103024.53;4951304;29;20051;-84
2022/03/20 02:07:13;;;;;;;14.50;13.13;;;;;;;9.30;55.00;103015.44;4952997;28;20097;-83
2022/03/20 02:09:41;;;;;;;18.63;12.32;;;;;;;8.43;55.27;102877.13;4952623;28;20422;-83
2022/03/20 02:12:10;;;;;;;15.63;12.32;;;;;;;8.40;55.07;102899.28;4953220;28;20093;-84
2022/03/20 02:14:37;;;;;;;16.08;12.32;;;;;;;9.19;55.14;103022.03;4952224;28;20203;-84
2022/03/20 02:17:04;;;;;;;19.48;13.50;;;;;;;7.32;55.41;102714.31;4951941;29;20051;-84
2022/03/20 02:19:34;;;;;;;14.07;12.43;;;;;;;8.95;55.39;103005.44;4951487;28;20380;-83
2022/03/20 02:22:01;;;;;;;14.43;12.93;;;;;;;8.06;55.95;102883.97;4951622;29;20070;-84
2022/03/20 02:24:35;;;;;;;17.10;13.25;;;;;;;8.90;55.83;103038.38;4951620;29;20047;-83
2022/03/20 02:27:39;;;;;;;14.40;12.88;;;;;;;8.82;56.25;103036.06;4951164;28;20114;-83
2022/03/20 02:30:13;;;;;;;13.82;12.38;;;;;;;8.58;55.71;103000.88;4949465;28;20140;-85
2022/03/20 02:32:45;;;;;;;15.85;12.48;;;;;;;8.55;55.48;103007.16;4952001;28;20520;-83
2022/03/20 02:35:15;;;;;;;16.67;12.57;;;;;;;8.59;54.97;103015.81;4951015;28;20146;-83
2022/03/20 02:37:46;;;;;;;15.15;12.40;;;;;;;8.52;54.93;103002.00;4951401;28;20046;-84
2022/03/20 02:40:14;;;;;;;15.88;13.25;;;;;;;8.58;55.48;103032.66;4953154;29;20146;-84
2022/03/20 02:42:45;;;;;;;15.38;12.68;;;;;;;7.77;55.83;102907.16;4955686;28;20142;-84
2022/03/20 02:45:14;;;;;;;14.35;12.73;;;;;;;7.88;54.81;102935.81;4956123;29;20118;-85
2022/03/20 02:47:45;;;;;;;14.35;12.85;;;;;;;8.33;54.85;103017.75;4950575;28;20727;-84
2022/03/20 02:50:19;;;;;;;14.63;12.93;;;;;;;8.42;54.32;103026.25;4950630;29;20247;-83
2022/03/20 02:52:47;;;;;;;17.75;14.73;;;;;;;8.45;54.95;103039.41;4950505;29;20114;-84
2022/03/20 02:55:21;;;;;;;14.82;13.02;;;;;;;8.42;54.62;103045.66;4950526;29;20047;-84
2022/03/20 02:57:48;;;;;;;16.67;12.90;;;;;;;8.19;55.15;103012.16;4951532;28;20505;-83
2022/03/20 03:00:21;;;;;;;18.48;13.38;;;;;;;8.01;54.12;102981.13;4959289;28;20133;-83
2022/03/20 03:02:50;;;;;;;15.02;12.93;;;;;;;8.22;54.66;103033.19;4968895;28;20058;-83
2022/03/20 03:05:19;;;;;;;17.05;13.77;;;;;;;8.26;54.99;103055.13;4969376;28;20085;-84
2022/03/20 03:13:20;;;;;;;14.50;12.65;;;;;;;8.14;54.40;103041.44;4949919;29;20355;-83
2022/03/20 03:15:46;;;;;;;15.43;13.45;;;;;;;8.23;54.28;103064.03;4949358;28;20497;-83
2022/03/20 03:18:13;;;;;;;16.13;13.35;;;;;;;8.16;54.26;103049.34;4948472;29;20130;-83
2022/03/20 03:20:40;;;;;;;14.50;13.10;;;;;;;8.21;53.74;103062.38;4949455;28;20082;-82
2022/03/20 03:23:25;;;;;;;15.48;13.98;;;;;;;7.84;54.27;103009.13;4950406;28;20125;-83
2022/03/20 03:25:52;;;;;;;17.80;14.10;;;;;;;7.96;54.21;103049.22;4951292;29;20118;-81
2022/03/20 03:28:19;;;;;;;19.10;13.88;;;;;;;8.01;54.50;103056.09;4949192;28;20175;-84
2022/03/20 03:30:48;;;;;;;15.75;13.25;;;;;;;8.04;54.69;103065.69;4949040;29;20075;-82
2022/03/20 03:33:18;;;;;;;16.83;14.60;;;;;;;7.96;54.87;103046.59;4948636;29;20146;-83
2022/03/20 03:35:53;;;;;;;15.70;14.10;;;;;;;7.78;55.25;103033.16;4948927;28;20114;-83
2022/03/20 03:38:30;;;;;;;15.63;13.75;;;;;;;7.92;54.96;103053.81;4948210;28;20449;-85
2022/03/20 03:40:58;;;;;;;15.10;13.55;;;;;;;7.02;55.65;102905.66;4948619;29;20077;-84
2022/03/20 03:43:25;;;;;;;15.52;13.27;;;;;;;6.32;55.83;102792.09;4948578;29;20047;-83
2022/03/20 03:45:53;;;;;;;16.25;14.35;;;;;;;7.53;55.66;103003.31;4948454;29;20055;-83
2022/03/20 03:48:20;;;;;;;19.15;15.82;;;;;;;7.89;56.08;103061.84;4950001;28;20058;-83
2022/03/20 03:50:50;;;;;;;16.23;13.05;;;;;;;6.89;56.53;102911.44;4949142;28;20486;-82
2022/03/20 03:53:17;;;;;;;17.00;13.77;;;;;;;7.90;55.74;103069.72;4948628;28;20059;-84
2022/03/20 03:55:44;;;;;;;16.00;14.35;;;;;;;7.73;55.16;103035.13;4948331;29;20047;-83
2022/03/20 03:58:12;;;;;;;17.23;14.15;;;;;;;7.85;55.04;103071.69;4955702;28;20097;-84
2022/03/20 04:00:42;;;;;;;16.50;14.73;;;;;;;7.81;55.00;103064.78;4963589;28;20498;-83
2022/03/20 04:03:09;;;;;;;16.23;14.48;;;;;;;7.78;55.29;103059.59;4948642;28;20078;-83
2022/03/20 04:05:36;;;;;;;16.90;15.20;;;;;;;6.63;55.75;102882.44;4959628;28;20132;-83
2022/03/20 04:08:06;;;;;;;20.50;14.70;;;;;;;6.51;55.54;102860.91;4968373;28;20090;-82
2022/03/20 04:10:33;;;;;;;17.13;14.55;;;;;;;7.71;55.72;103066.91;4968805;28;20114;-83
2022/03/20 04:13:00;;;;;;;16.00;14.40;;;;;;;7.57;56.07;103055.97;4967285;28;20153;-82
2022/03/20 04:15:27;;;;;;;16.13;14.25;;;;;;;7.71;55.80;103076.63;4949070;29;20144;-82
2022/03/20 04:17:53;;;;;;;17.98;14.70;;;;;;;7.69;55.19;103078.47;4954100;28;20126;-83
2022/03/20 04:20:20;;;;;;;16.17;14.05;;;;;;;7.54;55.94;103060.53;4965939;28;20094;-81
2022/03/20 04:25:33;;;;;;;16.27;14.55;;;;;;;7.28;55.63;103026.22;4960439;28;20055;-81
2022/03/20 04:28:00;;;;;;;17.42;14.57;;;;;;;7.60;56.03;103081.47;4968443;28;20137;-81
2022/03/20 04:30:28;;;;;;;19.05;15.50;;;;;;;7.42;56.47;103046.84;4969813;28;20067;-83
2022/03/20 04:32:56;;;;;;;17.85;15.52;;;;;;;7.07;56.67;103001.44;4969017;28;20047;-82
2022/03/20 04:35:23;;;;;;;18.73;16.73;;;;;;;7.35;57.28;103055.03;4948468;28;20059;-83
2022/03/20 04:37:52;;;;;;;19.02;16.50;;;;;;;7.56;57.13;103091.28;4949277;29;20051;-81
2022/03/20 04:40:19;;;;;;;16.75;15.05;;;;;;;7.62;56.60;103092.81;4948800;29;20137;-83
2022/03/20 04:42:45;;;;;;;19.27;15.70;;;;;;;7.56;56.56;103090.41;4950016;28;20142;-83
2022/03/20 04:45:13;;;;;;;19.08;16.50;;;;;;;7.44;56.44;103071.44;4949509;28;20063;-82
2022/03/20 04:58:43;;;;;;;21.10;15.75;;;;;;;7.34;58.87;103085.91;4968784;28;20057;-83
2022/03/20 05:01:10;;;;;;;18.48;16.50;;;;;;;7.15;59.61;103072.47;4967441;28;20051;-83
2022/03/20 05:03:38;;;;;;;16.55;14.82;;;;;;;7.25;59.24;103091.50;4968248;28;20062;-83
2022/03/20 05:06:05;;;;;;;17.92;16.02;;;;;;;7.27;59.66;103111.66;4969441;28;20133;-83
2022/03/20 05:08:35;;;;;;;24.63;17.23;;;;;;;6.64;60.39;103024.03;4971417;28;20051;-83
2022/03/20 05:13:47;;;;;;;19.05;16.27;;;;;;;6.32;60.52;102976.75;4972935;28;20051;-83
2022/03/20 05:16:14;;;;;;;15.70;14.07;;;;;;;7.16;60.13;103120.88;4970998;28;20051;-82
2022/03/20 05:18:42;;;;;;;19.50;16.00;;;;;;;6.92;60.76;103104.09;4971075;28;20141;-82
2022/03/20 05:21:10;;;;;;;19.63;15.75;;;;;;;6.89;60.38;103085.72;4972878;28;20509;-82
2022/03/20 05:23:37;;;;;;;19.33;16.13;;;;;;;6.85;60.47;103098.16;4971301;28;20311;-83
2022/03/20 05:26:04;;;;;;;17.35;15.45;;;;;;;6.82;60.57;103092.97;4955074;28;20059;-81
2022/03/20 05:28:31;;;;;;;16.55;14.85;;;;;;;6.78;60.28;103097.50;4952555;28;20120;-82
2022/03/20 05:30:58;;;;;;;19.60;16.73;;;;;;;6.51;60.36;103064.97;4957107;29;20043;-83
2022/03/20 05:33:25;;;;;;;18.75;16.85;;;;;;;6.94;60.12;103142.75;4955633;28;20082;-83
2022/03/20 05:35:52;;;;;;;18.23;15.90;;;;;;;6.88;60.00;103144.72;4953338;29;20616;-83
2022/03/20 05:38:19;;;;;;;21.27;16.52;;;;;;;6.74;60.17;103110.84;4952156;29;20066;-82
2022/03/20 05:40:46;;;;;;;18.20;15.68;;;;;;;6.57;60.22;103095.56;4952503;28;20482;-83
2022/03/20 05:43:13;;;;;;;21.23;17.75;;;;;;;6.68;60.11;103137.47;4952379;28;20054;-83
2022/03/20 05:45:40;;;;;;;21.95;16.48;;;;;;;6.16;60.22;103047.59;4951306;28;20142;-82
2022/03/20 05:48:10;;;;;;;21.42;17.15;;;;;;;6.49;59.87;103100.22;4950773;29;20051;-83
2022/03/20 05:50:43;;;;;;;20.25;17.10;;;;;;;6.79;60.09;103151.16;4951396;29;20057;-82
2022/03/20 05:53:29;;;;;;;20.67;17.52;;;;;;;6.81;59.32;103151.97;4952678;28;20251;-82
2022/03/20 05:58:41;;;;;;;20.08;18.00;;;;;;;6.40;59.33;103093.47;4952152;29;20075;-83
2022/03/20 06:01:08;;;;;;;20.70;18.50;;;;;;;6.79;59.26;103151.16;4950669;29;20491;-83
2022/03/20 06:03:35;;;;;;;21.63;18.15;;;;;;;6.20;59.39;103047.47;4950024;28;20059;-82
2022/03/20 06:06:02;;;;;;;25.23;18.27;;;;;;;6.80;59.80;103166.13;4951714;28;20055;-81
2022/03/20 06:08:29;;;;;;;24.30;17.67;;;;;;;6.54;59.85;103120.28;4950398;29;20051;-81
2022/03/20 06:10:56;;;;;;;20.95;17.80;;;;;;;6.59;60.01;103117.50;4951917;28;20057;-82
2022/03/20 06:13:22;;;;;;;19.10;17.13;;;;;;;6.83;60.45;103171.28;4952050;28;20114;-81
2022/03/20 06:15:49;;;;;;;20.55;16.95;;;;;;;6.03;60.84;103047.13;4952262;29;20070;-83
2022/03/20 06:18:15;;;;;;;21.90;17.63;;;;;;;6.79;60.58;103161.72;4952978;28;20428;-83
2022/03/20 06:20:42;;;;;;;21.73;18.20;;;;;;;6.97;60.32;103182.28;4954644;28;20083;-82
2022/03/20 06:23:09;;;;;;;21.02;18.35;;;;;;;6.80;60.49;103163.47;4953482;28;20149;-82
2022/03/20 06:25:35;;;;;;;21.25;18.27;;;;;;;6.89;60.94;103180.78;4962666;28;20133;-83
2022/03/20 06:28:02;;;;;;;20.73;17.88;;;;;;;6.87;60.69;103180.84;4969351;28;20054;-83
2022/03/20 06:30:33;;;;;;;20.23;17.83;;;;;;;6.96;60.88;103191.09;4970907;28;20050;-83
2022/03/20 06:33:02;;;;;;;22.42;18.95;;;;;;;6.48;60.72;103102.00;4969500;28;20061;-84
2022/03/20 06:35:29;;;;;;;21.33;18.92;;;;;;;7.01;60.56;103188.31;4970518;28;20051;-83
2022/03/20 06:37:56;;;;;;;19.58;17.48;;;;;;;6.92;60.56;103171.00;4969518;28;20445;-82
2022/03/20 06:40:23;;;;;;;19.83;17.15;;;;;;;6.97;59.94;103160.28;4969206;28;20081;-84
2022/03/20 06:42:50;;;;;;;20.15;17.85;;;;;;;6.96;60.19;103151.47;4970313;28;20303;-82
2022/03/20 06:45:19;;;;;;;20.45;17.88;;;;;;;7.28;59.58;103197.97;4968735;28;20042;-83
2022/03/20 06:47:46;;;;;;;20.67;17.83;;;;;;;7.22;59.80;103187.59;4969995;28;20401;-83
2022/03/20 06:50:14;;;;;;;21.95;17.20;;;;;;;6.73;59.37;103109.13;4970096;28;20095;-81
2022/03/20 06:52:40;;;;;;;19.65;17.65;;;;;;;6.93;59.17;103141.00;4969206;28;20254;-83
2022/03/20 06:55:12;;;;;;;20.45;17.17;;;;;;;7.28;59.26;103192.69;4968770;28;20620;-83
2022/03/20 06:57:43;;;;;;;23.13;17.38;;;;;;;7.27;59.52;103198.00;4969141;28;20050;-83
2022/03/20 07:00:12;;;;;;;23.30;19.43;;;;;;;7.36;59.48;103216.22;4968744;28;20109;-83
2022/03/20 07:02:38;;;;;;;20.20;17.92;;;;;;;7.22;58.90;103187.59;4968530;28;20141;-83
2022/03/20 07:05:06;;;;;;;22.83;18.75;;;;;;;7.41;58.96;103200.19;4968755;28;20053;-84
2022/03/20 07:07:36;;;;;;;21.10;18.88;;;;;;;7.06;58.79;103142.34;4968569;28;20066;-83
2022/03/20 07:10:04;;;;;;;22.77;19.85;;;;;;;7.58;58.63;103215.47;4952634;28;20298;-83
2022/03/20 07:12:31;;;;;;;21.48;18.52;;;;;;;7.51;57.59;103195.47;4948369;29;20083;-82
2022/03/20 07:14:57;;;;;;;22.35;19.95;;;;;;;7.23;56.85;103130.31;4948807;29;20067;-82
2022/03/20 07:17:24;;;;;;;22.23;19.92;;;;;;;7.81;56.81;103226.09;4948552;29;20047;-81
2022/03/20 07:19:51;;;;;;;22.65;19.77;;;;;;;7.44;56.81;103173.66;4948733;29;20083;-82
2022/03/20 07:22:19;;;;;;;23.30;19.48;;;;;;;7.77;57.37;103240.34;4947927;29;20516;-83
2022/03/20 07:24:48;;;;;;;22.73;20.35;;;;;;;7.83;57.37;103245.41;4954271;28;20053;-82
2022/03/20 07:30:03;;;;;;;25.70;20.02;;;;;;;7.83;56.90;103215.47;4968485;28;20074;-82
2022/03/20 07:32:30;;;;;;;22.65;19.58;;;;;;;8.07;56.56;103240.19;4961594;28;20058;-83
2022/03/20 07:34:56;;;;;;;22.50;19.67;;;;;;;8.08;56.63;103231.31;4965747;28;20137;-82
2022/03/20 07:37:23;;;;;;;23.65;21.15;;;;;;;8.13;56.24;103234.66;4949136;28;20059;-83
2022/03/20 07:39:51;;;;;;;25.08;21.15;;;;;;;8.29;55.80;103229.66;4954397;28;20038;-83
2022/03/20 07:42:19;;;;;;;23.63;21.13;;;;;;;8.05;55.83;103195.25;4968817;28;20054;-83
2022/03/20 07:44:46;;;;;;;25.27;22.55;;;;;;;7.82;54.99;103156.44;4969548;28;20320;-83
2022/03/20 07:47:31;;;;;;;25.58;22.17;;;;;;;8.21;55.47;103206.13;4967872;28;20062;-82
2022/03/20 07:50:00;;;;;;;26.08;23.25;;;;;;;8.42;55.14;103240.69;4950733;28;20063;-83
2022/03/20 07:52:28;;;;;;;26.15;22.58;;;;;;;8.12;55.27;103202.03;4948653;29;20070;-84
2022/03/20 07:54:55;;;;;;;25.45;22.63;;;;;;;8.34;54.82;103239.16;4948780;29;20051;-82
2022/03/20 07:57:22;;;;;;;28.48;22.95;;;;;;;8.33;55.09;103247.16;4948739;29;20074;-82
2022/03/20 07:59:48;;;;;;;28.48;23.77;;;;;;;8.38;54.67;103247.00;4948936;28;20214;-81
2022/03/20 08:02:15;;;;;;;26.13;23.27;;;;;;;8.14;54.30;103207.28;4958989;28;20061;-79
2022/03/20 08:04:42;;;;;;;27.45;24.50;;;;;;;8.43;54.28;103243.28;4961453;28;20059;-79
2022/03/20 08:07:09;;;;;;;26.55;23.27;;;;;;;8.26;54.82;103220.06;4949050;29;20070;-82
2022/03/20 08:09:36;;;;;;;26.98;23.80;;;;;;;8.38;55.61;103236.41;4951932;28;20075;-81
2022/03/20 08:12:03;;;;;;;27.92;23.52;;;;;;;8.37;55.11;103209.06;4949441;29;20082;-81
2022/03/20 08:14:50;;;;;;;25.65;23.05;;;;;;;8.48;55.16;103221.94;4950902;29;20047;-81
2022/03/20 08:17:17;;;;;;;27.20;24.17;;;;;;;8.73;54.79;103246.53;4949575;29;20082;-81
2022/03/20 08:19:44;;;;;;;25.27;22.27;;;;;;;8.51;54.72;103217.38;4949098;28;20146;-81
2022/03/20 08:22:11;;;;;;;25.13;22.05;;;;;;;8.72;55.32;103244.81;4948582;29;20077;-81
2022/03/20 08:24:39;;;;;;;28.80;23.77;;;;;;;8.80;55.10;103241.00;4947984;28;20047;-81
2022/03/20 08:27:06;;;;;;;26.63;23.83;;;;;;;8.89;55.03;103252.09;4948377;29;20051;-81
2022/03/20 08:29:32;;;;;;;25.67;23.00;;;;;;;8.77;55.61;103226.94;4948387;29;20134;-81
2022/03/20 08:31:59;;;;;;;25.20;22.63;;;;;;;8.92;55.49;103235.22;4948434;29;20055;-81
2022/03/20 08:34:26;;;;;;;27.70;24.70;;;;;;;8.90;54.42;103223.81;4955501;28;20043;-81
2022/03/20 08:36:54;;;;;;;27.55;24.63;;;;;;;9.00;54.20;103222.50;4968946;28;20310;-82
2022/03/20 08:39:20;;;;;;;28.05;25.05;;;;;;;9.07;53.97;103223.97;4967720;28;20082;-82
2022/03/20 08:41:47;;;;;;;26.60;23.55;;;;;;;9.12;54.17;103215.84;4967390;28;20046;-82
2022/03/20 08:44:14;;;;;;;27.45;23.90;;;;;;;9.24;53.86;103247.16;4967770;28;20058;-82
2022/03/20 08:46:41;;;;;;;27.23;23.65;;;;;;;9.40;53.39;103247.38;4967867;28;20090;-81
2022/03/20 08:49:08;;;;;;;27.75;24.83;;;;;;;9.27;53.02;103217.88;4967528;28;20343;-82
2022/03/20 08:51:39;;;;;;;27.67;24.83;;;;;;;9.45;53.52;103249.84;4950020;28;20047;-82
2022/03/20 08:54:06;;;;;;;26.85;23.70;;;;;;;9.34;53.41;103226.41;4950259;28;20102;-82
2022/03/20 08:56:33;;;;;;;31.85;25.58;;;;;;;9.31;52.58;103221.25;4948985;28;20051;-82
2022/03/20 08:59:00;;;;;;;28.33;25.33;;;;;;;9.55;53.28;103257.34;4948670;29;20561;-82
2022/03/20 09:01:26;;;;;;;32.75;25.50;;;;;;;9.55;53.05;103241.44;4948529;28;20104;-82
2022/03/20 09:03:53;;;;;;;28.58;24.30;;;;;;;9.73;53.43;103245.06;4946991;29;20117;-82
2022/03/20 09:06:21;;;;;;;27.33;24.45;;;;;;;9.73;52.95;103225.63;4947716;29;20058;-82
2022/03/20 09:08:49;;;;;;;28.17;25.17;;;;;;;9.91;53.00;103243.41;4955586;28;20299;-83
2022/03/20 09:11:17;;;;;;;28.75;23.30;;;;;;;9.89;52.89;103218.75;4969008;28;20560;-83
2022/03/20 09:13:44;;;;;;;27.05;24.13;;;;;;;10.17;52.07;103246.69;4970179;28;20549;-82
2022/03/20 09:18:59;;;;;;;25.35;21.70;;;;;;;10.28;50.72;103241.78;4968380;28;20493;-81
2022/03/20 09:21:37;;;;;;;24.35;21.75;;;;;;;9.33;50.72;103082.41;4966453;28;20047;-81
2022/03/20 09:24:06;;;;;;;24.08;21.40;;;;;;;10.44;50.77;103241.97;4966387;28;20058;-81
2022/03/20 09:26:33;;;;;;;23.45;21.13;;;;;;;10.27;50.61;103182.50;4966560;28;20560;-82
2022/03/20 09:28:59;;;;;;;27.40;23.65;;;;;;;10.62;49.86;103218.97;4967150;28;20153;-83
2022/03/20 09:31:27;;;;;;;25.17;21.90;;;;;;;10.79;50.18;103242.94;4947727;28;20142;-83
2022/03/20 09:33:54;;;;;;;23.77;21.55;;;;;;;10.82;49.27;103224.19;4948012;29;20051;-83
2022/03/20 09:36:21;;;;;;;26.15;22.58;;;;;;;11.12;49.18;103242.25;4948272;29;20126;-84
2022/03/20 09:38:48;;;;;;;26.02;20.77;;;;;;;11.28;48.93;103240.53;4949692;29;20051;-84
2022/03/20 09:41:17;;;;;;;25.20;22.20;;;;;;;11.50;48.16;103224.34;4947307;28;20133;-84
2022/03/20 09:43:45;;;;;;;24.02;21.38;;;;;;;10.89;47.95;103114.00;4947492;28;20053;-84
2022/03/20 09:46:21;;;;;;;24.20;20.90;;;;;;;11.66;47.64;103199.63;4948154;28;20047;-84
2022/03/20 09:48:48;;;;;;;24.27;21.52;;;;;;;12.03;46.51;103246.50;4947434;29;20079;-84
2022/03/20 09:51:14;;;;;;;22.40;20.00;;;;;;;11.65;46.23;103139.34;4948725;28;20141;-84
2022/03/20 09:53:41;;;;;;;24.90;21.75;;;;;;;12.23;45.82;103244.56;4954120;28;20082;-85
2022/03/20 09:56:11;;;;;;;23.13;20.63;;;;;;;12.29;46.19;103246.91;4950654;29;20580;-82
2022/03/20 09:58:38;;;;;;;21.65;19.60;;;;;;;12.40;45.77;103217.84;4950691;29;20101;-84
2022/03/20 10:01:06;;;;;;;24.13;20.70;;;;;;;12.63;45.18;103237.06;4950106;29;20106;-84
2022/03/20 10:03:33;;;;;;;21.77;19.67;;;;;;;12.76;45.01;103246.94;4952925;29;20572;-84
2022/03/20 10:06:17;;;;;;;23.20;20.70;;;;;;;12.96;44.49;103243.16;4957006;29;20268;-82
2022/03/20 10:09:02;;;;;;;22.52;20.13;;;;;;;12.78;43.89;103182.88;4964471;28;20051;-84
2022/03/20 10:11:29;;;;;;;21.10;18.95;;;;;;;13.27;43.97;103241.41;4971903;28;20094;-84
2022/03/20 10:14:06;;;;;;;22.02;19.30;;;;;;;13.20;43.27;103224.88;4970282;28;20421;-85
2022/03/20 10:16:35;;;;;;;21.02;18.58;;;;;;;12.87;43.09;103178.84;4969841;28;20055;-85
2022/03/20 10:19:25;;;;;;;20.70;18.60;;;;;;;13.34;44.00;103250.75;4971247;28;20050;-85
2022/03/20 10:22:03;;;;;;;22.15;19.83;;;;;;;13.55;43.36;103239.78;4969968;28;20121;-85
2022/03/20 10:24:31;;;;;;;21.65;19.27;;;;;;;13.23;43.20;103163.34;4969266;28;20055;-86
2022/03/20 10:27:01;;;;;;;20.52;18.30;;;;;;;13.53;42.50;103229.19;4971598;28;20539;-85
2022/03/20 10:29:29;;;;;;;21.23;19.13;;;;;;;13.78;42.88;103239.25;4970966;28;20138;-85
2022/03/20 10:31:59;;;;;;;20.92;18.75;;;;;;;13.73;42.60;103193.28;4970119;28;20138;-85
2022/03/20 10:34:26;;;;;;;20.70;18.45;;;;;;;13.65;42.23;103161.72;4969803;28;20492;-85
2022/03/20 10:36:53;;;;;;;19.27;17.35;;;;;;;14.13;41.04;103225.53;4969874;28;20055;-85
2022/03/20 10:39:26;;;;;;;20.50;17.92;;;;;;;14.32;41.64;103222.56;4970151;28;20046;-83
2022/03/20 10:41:54;;;;;;;19.63;17.52;;;;;;;14.51;41.39;103230.25;4970260;28;20477;-86
2022/03/20 10:44:38;;;;;;;20.75;18.70;;;;;;;14.38;40.66;103166.06;4969611;28;20042;-85
2022/03/20 10:47:12;;;;;;;20.60;17.27;;;;;;;14.62;40.20;103187.69;4970041;28;20093;-86
2022/03/20 10:49:41;;;;;;;25.73;17.95;;;;;;;14.85;40.22;103225.44;4962811;28;20054;-86
2022/03/20 10:52:10;;;;;;;20.38;17.88;;;;;;;14.94;39.67;103203.44;4966381;28;20489;-86
2022/03/20 10:54:43;;;;;;;18.90;17.00;;;;;;;14.94;39.22;103179.38;4932172;29;20490;-85
2022/03/20 10:57:15;;;;;;;19.00;17.10;;;;;;;14.89;39.21;103136.88;4944802;28;20059;-84
2022/03/20 10:59:43;;;;;;;19.58;17.10;;;;;;;15.60;39.08;103212.34;4971123;28;20047;-84
2022/03/20 11:02:21;;;;;;;19.50;17.58;;;;;;;15.80;38.01;103205.66;4970171;28;20086;-85
2022/03/20 11:04:49;;;;;;;19.33;17.42;;;;;;;15.23;37.57;103096.28;4969706;28;20311;-85
2022/03/20 11:07:17;;;;;;;18.75;16.75;;;;;;;15.75;37.17;103178.31;4951952;28;20114;-85
2022/03/20 11:09:48;;;;;;;20.05;17.92;;;;;;;16.01;36.95;103212.16;4953477;28;20082;-85
2022/03/20 11:12:24;;;;;;;18.15;16.30;;;;;;;16.00;37.46;103172.13;4949863;29;20478;-83
2022/03/20 11:14:52;;;;;;;19.50;17.50;;;;;;;16.36;36.47;103190.03;4949770;28;20044;-84
2022/03/20 11:17:26;;;;;;;19.65;17.75;;;;;;;15.96;36.38;103095.59;4950120;29;20066;-86
2022/03/20 11:20:02;;;;;;;19.48;17.52;;;;;;;15.73;35.76;103039.19;4952176;28;20055;-85
2022/03/20 11:22:31;;;;;;;18.67;16.77;;;;;;;16.37;35.94;103148.84;4937258;28;20061;-87
2022/03/20 11:24:58;;;;;;;18.02;16.20;;;;;;;16.85;36.55;103202.53;4969272;28;20482;-87
2022/03/20 11:27:30;;;;;;;20.00;17.85;;;;;;;15.82;35.46;103002.84;4969462;28;20109;-86
2022/03/20 11:30:04;;;;;;;19.35;17.10;;;;;;;17.02;33.83;103184.34;4970491;28;20058;-84
2022/03/20 11:32:31;;;;;;;18.23;16.35;;;;;;;16.85;34.56;103173.03;4968400;28;20055;-85
2022/03/20 11:34:58;;;;;;;17.73;16.00;;;;;;;16.85;34.99;103148.03;4969626;28;20133;-83
2022/03/20 11:37:48;;;;;;;19.65;17.00;;;;;;;17.17;34.51;103169.75;4968342;28;20054;-83
2022/03/20 11:40:21;;;;;;;18.83;16.88;;;;;;;17.21;33.99;103160.50;4968507;28;20047;-83
2022/03/20 11:42:50;;;;;;;19.33;17.30;;;;;;;16.83;33.79;103096.31;4967847;28;20453;-83
2022/03/20 11:45:20;;;;;;;20.85;17.75;;;;;;;17.11;34.13;103140.66;4967747;28;20158;-83
2022/03/20 11:47:50;;;;;;;20.58;16.77;;;;;;;17.09;34.33;103142.66;4969297;28;20051;-83
2022/03/20 11:50:20;;;;;;;18.45;16.50;;;;;;;17.25;34.11;103151.19;4969969;28;20121;-84
2022/03/20 11:53:06;;;;;;;17.48;15.55;;;;;;;17.21;33.39;103105.91;4967746;28;20453;-85